Ebbw Vale, United Kingdom
Current Conditions -  °F | °C
As of 4:50 PM on Saturday 20 Dec 2014 (Local Time) from EGFF Reporting Station
Few Clouds Few Clouds  
Wind Chill: 39°   Ceiling: Unl
Heat Index: 45°   Visibility: 6mi
Dew Point: 41°   Wind: 12mph
Humidity: 87%   Direction: 290°WNW
Pressure: 30.45"   Gusts: NA
Location:  51.78°N, 3.21°W
Report Text: EGFF 201650Z AUTO 29010KT 9999 FEW033 07/05 Q1031
Loading
Personal Weather Stations






























Interactive Weather Map New forecast layout! Learn more

10-Day Weather Forecast

Advertisements
Track Severe Weather on mobile